createdAt,value
2022-08-30T00:00:49.428Z,71.77
2022-08-30T00:03:16.823Z,71.89
2022-08-30T00:05:44.248Z,72.03
2022-08-30T00:08:11.027Z,72.18
2022-08-30T00:10:38.332Z,72.31
2022-08-30T00:13:06.605Z,72.42
2022-08-30T00:15:33.523Z,72.58
2022-08-30T00:18:00.435Z,72.70
2022-08-30T00:20:29.500Z,72.82
2022-08-30T00:22:56.268Z,72.88
2022-08-30T00:25:23.179Z,73.14
2022-08-30T00:27:50.248Z,73.24
2022-08-30T00:30:17.264Z,73.28
2022-08-30T00:32:44.076Z,73.46
2022-08-30T00:35:12.041Z,73.66
2022-08-30T00:37:38.963Z,73.83
2022-08-30T00:40:06.751Z,73.89
2022-08-30T00:42:33.830Z,73.91
2022-08-30T00:45:00.613Z,73.92
2022-08-30T00:47:27.358Z,73.99
2022-08-30T00:49:55.150Z,74.06
2022-08-30T00:52:22.246Z,74.03
2022-08-30T00:54:49.181Z,74.09
2022-08-30T00:57:15.948Z,74.01
2022-08-30T00:59:44.648Z,74.07
2022-08-30T01:02:11.626Z,74.13
2022-08-30T01:04:40.749Z,74.13
2022-08-30T01:07:08.339Z,74.25
2022-08-30T01:09:36.088Z,74.33
2022-08-30T01:12:04.724Z,74.47
2022-08-30T01:14:33.224Z,74.53
2022-08-30T01:17:01.576Z,74.62
2022-08-30T01:19:34.666Z,74.68
2022-08-30T01:22:18.826Z,74.81
2022-08-30T01:24:48.512Z,74.87
2022-08-30T01:27:15.942Z,74.97
2022-08-30T01:29:45.075Z,75.15
2022-08-30T01:32:29.791Z,75.24
2022-08-30T01:34:57.161Z,75.35
2022-08-30T01:37:27.209Z,75.50
2022-08-30T01:39:54.020Z,75.57
2022-08-30T01:42:20.892Z,75.70
2022-08-30T01:44:48.733Z,75.82
2022-08-30T01:47:15.838Z,75.91
2022-08-30T01:49:42.702Z,76.18
2022-08-30T01:52:09.429Z,76.27
2022-08-30T01:54:38.197Z,76.47
2022-08-30T01:57:10.076Z,76.67
2022-08-30T01:59:37.168Z,76.81
2022-08-30T02:02:04.421Z,76.91
2022-08-30T02:04:31.323Z,76.90
2022-08-30T02:06:58.091Z,77.05
2022-08-30T02:09:24.839Z,77.26
2022-08-30T02:11:51.959Z,77.49
2022-08-30T02:14:18.726Z,77.64
2022-08-30T02:16:48.508Z,77.70
2022-08-30T02:19:15.510Z,77.79
2022-08-30T02:21:42.259Z,77.86
2022-08-30T02:24:08.955Z,77.93
2022-08-30T02:26:36.675Z,78.06
2022-08-30T02:29:05.369Z,78.25
2022-08-30T02:31:32.423Z,78.30
2022-08-30T02:33:59.213Z,78.44
2022-08-30T02:36:25.950Z,78.58
2022-08-30T02:38:52.742Z,78.61
2022-08-30T02:41:19.744Z,78.68
2022-08-30T02:43:46.673Z,78.80
2022-08-30T02:46:14.094Z,78.92
2022-08-30T02:48:40.913Z,78.99
2022-08-30T02:51:11.167Z,79.03
2022-08-30T02:53:39.302Z,79.18
2022-08-30T02:56:06.107Z,79.34
2022-08-30T02:58:32.860Z,79.50
2022-08-30T03:00:59.679Z,79.64
2022-08-30T03:03:26.620Z,79.73
2022-08-30T03:05:53.395Z,79.97
2022-08-30T03:08:20.147Z,80.04
2022-08-30T03:10:46.897Z,80.23
2022-08-30T03:13:13.631Z,80.38
2022-08-30T03:15:40.584Z,80.40
2022-08-30T03:18:07.913Z,80.61
2022-08-30T03:20:37.520Z,80.66
2022-08-30T03:23:04.835Z,80.84
2022-08-30T03:25:31.670Z,80.95
2022-08-30T03:27:58.517Z,81.11
2022-08-30T03:30:25.505Z,81.31
2022-08-30T03:32:52.440Z,81.53
2022-08-30T03:35:19.374Z,81.79
2022-08-30T03:37:46.263Z,81.83
2022-08-30T03:40:14.540Z,81.86
2022-08-30T03:42:43.339Z,82.15
2022-08-30T03:45:11.066Z,82.11
2022-08-30T03:47:37.824Z,82.18
2022-08-30T03:50:08.008Z,82.31
2022-08-30T03:52:34.724Z,82.42
2022-08-30T03:55:01.558Z,82.63
2022-08-30T03:57:28.758Z,82.77
2022-08-30T03:59:55.499Z,82.86
2022-08-30T04:02:22.455Z,83.07
2022-08-30T04:04:49.299Z,83.16
2022-08-30T04:07:16.074Z,83.29
2022-08-30T04:09:42.793Z,83.51
2022-08-30T04:12:09.584Z,83.60
2022-08-30T04:14:36.287Z,83.84
2022-08-30T04:17:03.116Z,84.09
2022-08-30T04:19:29.850Z,84.13
2022-08-30T04:21:57.393Z,84.32
2022-08-30T04:24:24.332Z,84.47
2022-08-30T04:26:51.154Z,84.57
2022-08-30T04:29:18.007Z,84.78
2022-08-30T04:31:45.383Z,84.69
2022-08-30T04:34:12.953Z,84.88
2022-08-30T04:36:39.755Z,84.98
2022-08-30T04:39:07.402Z,85.00
2022-08-30T04:41:34.247Z,85.08
2022-08-30T04:44:03.125Z,84.96
2022-08-30T04:46:30.388Z,85.00
2022-08-30T04:48:57.139Z,85.00
2022-08-30T04:51:23.855Z,84.90
2022-08-30T04:53:50.603Z,84.65
2022-08-30T04:56:19.622Z,84.47
2022-08-30T04:58:47.438Z,84.25
2022-08-30T05:01:15.264Z,84.18
2022-08-30T05:03:46.246Z,83.91
2022-08-30T05:06:13.193Z,83.49
2022-08-30T05:08:39.937Z,83.34
2022-08-30T05:11:12.871Z,82.97
2022-08-30T05:13:39.675Z,82.66
2022-08-30T05:16:07.160Z,82.39
2022-08-30T05:18:34.864Z,81.92
2022-08-30T05:21:09.712Z,81.81
2022-08-30T05:23:37.047Z,81.56
2022-08-30T05:26:08.660Z,81.34
2022-08-30T05:28:35.903Z,81.13
2022-08-30T05:31:02.916Z,81.03
2022-08-30T05:33:30.082Z,80.70
2022-08-30T05:35:56.844Z,80.19
2022-08-30T05:38:23.593Z,79.89
2022-08-30T05:40:51.252Z,79.47
2022-08-30T05:43:18.540Z,79.16
2022-08-30T05:45:45.270Z,79.23
2022-08-30T05:48:13.050Z,79.16
2022-08-30T05:50:40.136Z,78.52
2022-08-30T05:53:06.993Z,77.78
2022-08-30T05:55:33.798Z,77.42
2022-08-30T05:58:00.837Z,76.94
2022-08-30T06:00:30.303Z,76.41
2022-08-30T06:02:57.328Z,75.77
2022-08-30T06:05:24.335Z,75.13
2022-08-30T06:07:51.180Z,74.46
2022-08-30T06:10:17.961Z,73.99
2022-08-30T06:12:44.780Z,73.71
2022-08-30T06:15:12.026Z,73.20
2022-08-30T06:17:39.802Z,72.82
2022-08-30T06:20:07.314Z,72.38
2022-08-30T06:22:34.440Z,72.04
2022-08-30T06:25:01.276Z,71.68
2022-08-30T06:27:28.143Z,71.22
2022-08-30T06:29:54.918Z,71.23
2022-08-30T06:32:21.768Z,70.64
2022-08-30T06:34:48.559Z,70.27
2022-08-30T06:37:29.311Z,69.78
2022-08-30T06:39:57.718Z,69.52
2022-08-30T06:42:30.513Z,69.29
2022-08-30T06:44:58.498Z,68.65
2022-08-30T06:47:25.259Z,68.02
2022-08-30T06:49:51.992Z,67.31
2022-08-30T06:52:19.227Z,66.72
2022-08-30T06:54:46.062Z,66.15
2022-08-30T06:57:13.041Z,65.66
2022-08-30T06:59:40.118Z,65.32
2022-08-30T07:02:07.012Z,64.31
2022-08-30T07:04:33.806Z,63.62
2022-08-30T07:07:00.663Z,63.74
2022-08-30T07:09:27.443Z,63.44
2022-08-30T07:11:54.249Z,62.95
2022-08-30T07:14:21.379Z,62.43
2022-08-30T07:16:51.118Z,62.01
2022-08-30T07:19:20.760Z,61.62
2022-08-30T07:21:49.291Z,60.99
2022-08-30T07:24:16.555Z,60.77
2022-08-30T07:26:47.264Z,61.02
2022-08-30T07:29:14.129Z,61.08
2022-08-30T07:31:40.943Z,60.35
2022-08-30T07:34:07.795Z,59.92
2022-08-30T07:36:35.348Z,59.36
2022-08-30T07:39:09.751Z,58.87
2022-08-30T07:41:38.756Z,57.90
2022-08-30T07:44:07.391Z,57.19
2022-08-30T07:46:34.568Z,57.78
2022-08-30T07:49:01.880Z,57.56
2022-08-30T07:51:31.000Z,57.77
2022-08-30T07:53:57.716Z,57.43
2022-08-30T07:56:24.635Z,56.26
2022-08-30T07:58:51.437Z,55.97
2022-08-30T08:01:18.383Z,56.05
2022-08-30T08:03:45.475Z,55.93
2022-08-30T08:06:13.446Z,56.20
2022-08-30T08:08:40.332Z,56.14
2022-08-30T08:11:16.256Z,56.06
2022-08-30T08:13:53.778Z,55.65
2022-08-30T08:16:22.502Z,54.00
2022-08-30T08:18:49.283Z,54.38
2022-08-30T08:21:16.100Z,54.70
2022-08-30T08:23:42.835Z,53.73
2022-08-30T08:26:09.634Z,53.51
2022-08-30T08:28:36.391Z,53.25
2022-08-30T08:31:03.528Z,52.90
2022-08-30T08:33:30.522Z,53.14
2022-08-30T08:35:57.255Z,53.35
2022-08-30T08:38:24.129Z,52.85
2022-08-30T08:41:10.484Z,52.09
2022-08-30T08:43:38.686Z,52.10
2022-08-30T08:46:10.905Z,51.01
2022-08-30T08:49:04.982Z,50.60
2022-08-30T08:51:52.246Z,50.63
2022-08-30T08:54:24.914Z,50.24
2022-08-30T08:56:51.712Z,50.13
2022-08-30T08:59:18.476Z,49.82
2022-08-30T09:01:45.290Z,49.69
2022-08-30T09:04:14.937Z,50.02
2022-08-30T09:06:58.951Z,49.79
2022-08-30T09:09:27.816Z,50.15
2022-08-30T09:11:54.579Z,50.89
2022-08-30T09:14:30.485Z,50.97
2022-08-30T09:17:05.300Z,49.72
2022-08-30T09:19:35.089Z,49.09
2022-08-30T09:22:05.018Z,49.15
2022-08-30T09:24:40.177Z,48.85
2022-08-30T09:27:17.051Z,49.35
2022-08-30T09:29:54.691Z,49.90
2022-08-30T09:32:37.253Z,49.70
2022-08-30T09:35:05.694Z,48.67
2022-08-30T09:37:35.812Z,48.24
2022-08-30T09:40:07.707Z,48.33
2022-08-30T09:42:34.485Z,48.70
2022-08-30T09:45:10.607Z,49.39
2022-08-30T09:47:42.428Z,49.11
2022-08-30T09:50:21.114Z,48.68
2022-08-30T09:53:10.599Z,48.57
2022-08-30T09:55:54.182Z,49.05
2022-08-30T09:58:30.067Z,49.07
2022-08-30T10:01:12.317Z,49.31
2022-08-30T10:03:44.101Z,49.27
2022-08-30T10:06:25.437Z,49.32
2022-08-30T10:09:03.819Z,49.10
2022-08-30T10:11:39.730Z,48.92
2022-08-30T10:14:12.465Z,48.48
2022-08-30T10:16:55.304Z,48.23
2022-08-30T10:19:47.521Z,48.29
2022-08-30T10:22:18.140Z,48.28
2022-08-30T10:24:48.159Z,47.83
2022-08-30T10:27:20.867Z,47.53
2022-08-30T10:29:51.402Z,46.70
2022-08-30T10:32:28.682Z,46.22
2022-08-30T10:38:06.430Z,47.91
2022-08-30T10:40:53.843Z,48.05
2022-08-30T10:43:32.035Z,48.28
2022-08-30T10:46:00.805Z,48.10
2022-08-30T10:48:31.324Z,48.28
2022-08-30T10:50:59.221Z,47.88
2022-08-30T10:53:34.134Z,48.03
2022-08-30T10:56:13.080Z,48.04
2022-08-30T10:58:40.996Z,47.72
2022-08-30T11:01:28.526Z,47.69
2022-08-30T11:04:29.358Z,47.49
2022-08-30T11:07:01.815Z,47.85
2022-08-30T11:09:42.674Z,48.21
2022-08-30T11:12:35.014Z,48.37
2022-08-30T11:15:13.628Z,47.89
2022-08-30T11:18:15.027Z,47.49
2022-08-30T11:20:50.888Z,46.56
2022-08-30T11:23:27.602Z,46.78
2022-08-30T11:26:06.090Z,46.51
2022-08-30T11:28:36.778Z,46.40
2022-08-30T11:31:18.499Z,45.83
2022-08-30T11:33:51.951Z,46.14
2022-08-30T11:36:46.282Z,45.91
2022-08-30T11:39:44.372Z,45.62
2022-08-30T11:42:32.490Z,45.86
2022-08-30T11:45:25.445Z,45.68
2022-08-30T11:48:00.790Z,45.58
2022-08-30T11:50:53.593Z,45.44
2022-08-30T11:53:43.953Z,45.38
2022-08-30T11:56:21.414Z,44.88
2022-08-30T11:59:01.730Z,45.30
2022-08-30T12:01:50.971Z,45.74
2022-08-30T12:04:19.514Z,45.40
2022-08-30T12:07:04.122Z,45.03
2022-08-30T12:09:32.927Z,44.95
2022-08-30T12:12:09.631Z,44.67
2022-08-30T12:15:58.476Z,44.47
2022-08-30T12:18:52.026Z,44.16
2022-08-30T12:21:22.049Z,44.46
2022-08-30T12:23:53.164Z,44.48
2022-08-30T12:26:26.035Z,45.07
2022-08-30T12:29:07.478Z,44.95
2022-08-30T12:31:34.244Z,43.58
2022-08-30T12:34:01.608Z,43.32
2022-08-30T12:36:52.606Z,43.52
2022-08-30T12:39:24.031Z,43.88
2022-08-30T12:41:50.833Z,44.04
2022-08-30T12:44:25.986Z,44.02
2022-08-30T12:46:59.754Z,43.62
2022-08-30T12:49:30.020Z,43.51
2022-08-30T12:51:57.514Z,43.75
2022-08-30T12:54:28.425Z,44.13
2022-08-30T12:59:56.741Z,43.46
2022-08-30T13:02:27.903Z,43.55
2022-08-30T13:04:55.562Z,43.33
2022-08-30T13:07:33.696Z,42.85
2022-08-30T13:10:06.402Z,42.11
2022-08-30T13:12:36.058Z,42.21
2022-08-30T13:15:10.596Z,42.43
2022-08-30T13:17:37.350Z,42.47
2022-08-30T13:20:22.012Z,43.14
2022-08-30T13:23:03.112Z,43.07
2022-08-30T13:25:32.904Z,43.00
2022-08-30T13:28:00.617Z,42.83
2022-08-30T13:30:27.609Z,43.04
2022-08-30T13:32:54.354Z,43.27
2022-08-30T13:35:21.526Z,42.51
2022-08-30T13:37:50.260Z,42.26
2022-08-30T13:40:19.151Z,42.00
2022-08-30T13:42:45.975Z,41.07
2022-08-30T13:48:00.998Z,41.53
2022-08-30T13:50:28.002Z,42.04
2022-08-30T13:52:54.739Z,41.87
2022-08-30T13:55:21.502Z,41.51
2022-08-30T13:57:56.390Z,41.61
2022-08-30T14:00:25.041Z,41.77
2022-08-30T14:02:57.502Z,41.46
2022-08-30T14:06:05.302Z,41.44
2022-08-30T14:08:45.306Z,41.51
2022-08-30T14:11:13.287Z,41.09
2022-08-30T14:14:14.776Z,41.17
2022-08-30T14:16:27.736Z,41.24
2022-08-30T14:18:55.349Z,41.00
2022-08-30T14:21:24.717Z,41.00
2022-08-30T14:23:56.084Z,40.85
2022-08-30T14:26:26.839Z,40.97
2022-08-30T14:28:59.333Z,41.40
2022-08-30T14:31:26.141Z,41.57
2022-08-30T14:33:53.089Z,40.89
2022-08-30T14:36:19.989Z,40.88
2022-08-30T14:38:48.458Z,40.98
2022-08-30T14:41:15.455Z,40.81
2022-08-30T14:43:42.257Z,40.46
2022-08-30T14:46:10.309Z,39.82
2022-08-30T14:48:37.626Z,39.48
2022-08-30T14:51:12.318Z,39.87
2022-08-30T14:53:39.147Z,39.86
2022-08-30T14:56:10.852Z,39.82
2022-08-30T14:58:37.757Z,39.00
2022-08-30T15:01:12.474Z,39.01
2022-08-30T15:03:40.007Z,39.55
2022-08-30T15:06:07.347Z,39.72
2022-08-30T15:08:34.985Z,39.87
2022-08-30T15:11:02.387Z,40.05
2022-08-30T15:13:29.139Z,40.36
2022-08-30T15:15:56.839Z,40.55
2022-08-30T15:18:24.575Z,40.70
2022-08-30T15:20:51.383Z,40.75
2022-08-30T15:23:18.226Z,40.40
2022-08-30T15:25:51.567Z,40.26
2022-08-30T15:28:19.316Z,40.04
2022-08-30T15:30:46.210Z,39.97
2022-08-30T15:33:12.930Z,40.52
2022-08-30T15:35:41.628Z,40.73
2022-08-30T15:38:08.564Z,40.96
2022-08-30T15:40:39.666Z,41.02
2022-08-30T15:43:06.591Z,41.15
2022-08-30T15:45:33.814Z,41.20
2022-08-30T15:48:00.800Z,41.13
2022-08-30T15:50:27.914Z,41.52
2022-08-30T15:52:54.975Z,41.70
2022-08-30T15:55:21.710Z,41.64
2022-08-30T15:57:48.509Z,41.56
2022-08-30T16:00:15.762Z,41.78
2022-08-30T16:02:43.038Z,41.34
2022-08-30T16:05:10.734Z,41.25
2022-08-30T16:07:40.529Z,40.99
2022-08-30T16:10:08.891Z,41.10
2022-08-30T16:12:35.635Z,41.43
2022-08-30T16:15:02.405Z,41.21
2022-08-30T16:17:29.217Z,41.49
2022-08-30T16:19:58.896Z,41.64
2022-08-30T16:22:26.592Z,41.73
2022-08-30T16:24:53.566Z,41.82
2022-08-30T16:27:21.167Z,42.00
2022-08-30T16:29:48.535Z,42.33
2022-08-30T16:32:17.440Z,42.58
2022-08-30T16:34:44.218Z,42.84
2022-08-30T16:37:11.006Z,42.75
2022-08-30T16:39:37.759Z,43.17
2022-08-30T16:42:06.898Z,43.31
2022-08-30T16:44:33.872Z,43.34
2022-08-30T16:47:01.720Z,43.91
2022-08-30T16:49:28.645Z,43.96
2022-08-30T16:51:56.112Z,44.15
2022-08-30T16:54:23.398Z,44.90
2022-08-30T16:56:50.297Z,45.75
2022-08-30T16:59:17.806Z,47.21
2022-08-30T17:01:45.744Z,48.38
2022-08-30T17:04:15.891Z,49.93
2022-08-30T17:06:46.137Z,50.58
2022-08-30T17:09:15.145Z,50.85
2022-08-30T17:11:42.201Z,51.18
2022-08-30T17:14:09.628Z,51.57
2022-08-30T17:16:37.171Z,52.70
2022-08-30T17:19:04.382Z,53.66
2022-08-30T17:21:32.251Z,53.99
2022-08-30T17:24:01.858Z,54.50
2022-08-30T17:26:33.388Z,55.27
2022-08-30T17:29:00.124Z,55.94
2022-08-30T17:31:29.285Z,55.97
2022-08-30T17:34:01.166Z,56.97
2022-08-30T17:36:31.142Z,57.97
2022-08-30T17:38:57.878Z,58.77
2022-08-30T17:41:24.612Z,59.49
2022-08-30T17:43:51.631Z,59.63
2022-08-30T17:46:19.592Z,60.48
2022-08-30T17:48:46.735Z,61.02
2022-08-30T17:51:13.543Z,61.22
2022-08-30T17:53:40.436Z,61.64
2022-08-30T17:56:08.636Z,62.17
2022-08-30T17:58:35.408Z,62.22
2022-08-30T18:01:11.768Z,62.46
2022-08-30T18:03:39.011Z,62.91
2022-08-30T18:06:07.192Z,63.35
2022-08-30T18:08:34.456Z,63.41
2022-08-30T18:11:01.732Z,63.90
2022-08-30T18:13:28.530Z,64.46
2022-08-30T18:15:56.622Z,64.76
2022-08-30T18:18:23.764Z,65.14
2022-08-30T18:20:51.053Z,65.19
2022-08-30T18:23:18.019Z,65.53
2022-08-30T18:25:57.873Z,65.51
2022-08-30T18:28:24.788Z,65.09
2022-08-30T18:30:52.872Z,65.03
2022-08-30T18:33:20.381Z,65.05
2022-08-30T18:35:48.728Z,65.53
2022-08-30T18:38:15.584Z,65.42
2022-08-30T18:40:42.535Z,65.46
2022-08-30T18:43:10.657Z,65.74
2022-08-30T18:45:37.769Z,65.94
2022-08-30T18:48:05.575Z,65.93
2022-08-30T18:50:32.468Z,66.20
2022-08-30T18:52:59.711Z,66.42
2022-08-30T18:55:26.841Z,66.61
2022-08-30T18:57:54.125Z,66.78
2022-08-30T19:00:21.746Z,66.89
2022-08-30T19:02:48.783Z,66.88
2022-08-30T19:05:16.323Z,66.76
2022-08-30T19:07:43.968Z,66.96
2022-08-30T19:10:12.384Z,67.24
2022-08-30T19:12:39.950Z,67.12
2022-08-30T19:15:10.854Z,66.90
2022-08-30T19:17:43.135Z,66.87
2022-08-30T19:20:11.459Z,66.93
2022-08-30T19:22:56.550Z,66.91
2022-08-30T19:25:25.354Z,67.12
2022-08-30T19:27:52.336Z,66.90
2022-08-30T19:30:29.677Z,66.79
2022-08-30T19:32:57.066Z,67.14
2022-08-30T19:35:24.250Z,67.22
2022-08-30T19:37:51.248Z,67.47
2022-08-30T19:40:18.503Z,67.35
2022-08-30T19:42:45.917Z,67.56
2022-08-30T19:45:32.242Z,67.65
2022-08-30T19:48:00.831Z,67.83
2022-08-30T19:50:27.628Z,68.21
2022-08-30T19:52:55.324Z,68.30
2022-08-30T19:55:28.680Z,68.29
2022-08-30T19:57:57.321Z,68.21
2022-08-30T20:00:24.114Z,68.19
2022-08-30T20:02:51.393Z,68.15
2022-08-30T20:05:18.938Z,68.23
2022-08-30T20:07:45.909Z,68.35
2022-08-30T20:10:13.831Z,68.49
2022-08-30T20:12:45.462Z,68.52
2022-08-30T20:15:14.594Z,68.45
2022-08-30T20:18:02.714Z,68.58
2022-08-30T20:20:29.196Z,68.91
2022-08-30T20:22:55.958Z,69.01
2022-08-30T20:25:22.866Z,69.08
2022-08-30T20:27:49.730Z,69.24
2022-08-30T20:30:17.072Z,69.30
2022-08-30T20:32:46.683Z,69.30
2022-08-30T20:35:14.922Z,69.27
2022-08-30T20:37:43.216Z,69.20
2022-08-30T20:40:15.020Z,69.18
2022-08-30T20:42:45.481Z,69.22
2022-08-30T20:45:14.051Z,69.33
2022-08-30T20:47:41.582Z,69.22
2022-08-30T20:50:13.794Z,69.22
2022-08-30T20:52:40.873Z,69.41
2022-08-30T20:55:08.291Z,69.47
2022-08-30T20:57:35.025Z,69.52
2022-08-30T21:00:01.824Z,69.54
2022-08-30T21:02:28.681Z,69.66
2022-08-30T21:04:55.817Z,69.55
2022-08-30T21:07:22.634Z,69.46
2022-08-30T21:09:50.235Z,69.41
2022-08-30T21:12:16.958Z,69.42
2022-08-30T21:14:43.700Z,69.12
2022-08-30T21:17:10.439Z,68.80
2022-08-30T21:19:40.878Z,68.62
2022-08-30T21:22:10.499Z,68.62
2022-08-30T21:24:37.295Z,68.49
2022-08-30T21:27:04.143Z,68.40
2022-08-30T21:29:33.074Z,68.45
2022-08-30T21:31:59.811Z,68.44
2022-08-30T21:34:26.596Z,68.06
2022-08-30T21:36:53.512Z,67.65
2022-08-30T21:39:20.526Z,67.27
2022-08-30T21:41:48.395Z,67.07
2022-08-30T21:44:17.543Z,66.79
2022-08-30T21:46:44.514Z,66.76
2022-08-30T21:49:12.288Z,66.59
2022-08-30T21:51:40.981Z,66.26
2022-08-30T21:54:08.769Z,66.24
2022-08-30T21:56:36.347Z,65.99
2022-08-30T21:59:04.188Z,65.94
2022-08-30T22:01:31.539Z,65.69
2022-08-30T22:04:00.188Z,65.50
2022-08-30T22:06:30.767Z,65.07
2022-08-30T22:08:58.466Z,64.89
2022-08-30T22:11:25.843Z,64.84
2022-08-30T22:13:52.970Z,64.64
2022-08-30T22:16:19.932Z,64.55
2022-08-30T22:18:46.694Z,64.45
2022-08-30T22:21:16.402Z,64.53
2022-08-30T22:23:43.700Z,64.42
2022-08-30T22:26:10.574Z,64.40
2022-08-30T22:28:37.415Z,64.61
2022-08-30T22:31:06.428Z,64.97
2022-08-30T22:33:33.205Z,65.03
2022-08-30T22:36:14.644Z,65.38
2022-08-30T22:38:41.383Z,65.36
2022-08-30T22:41:09.723Z,65.32
2022-08-30T22:43:36.639Z,65.35
2022-08-30T22:46:03.562Z,65.37
2022-08-30T22:48:30.338Z,65.48
2022-08-30T22:50:57.038Z,65.59
2022-08-30T22:53:23.799Z,65.69
2022-08-30T22:55:50.526Z,65.64
2022-08-30T22:58:19.016Z,65.67
2022-08-30T23:00:54.458Z,65.61
2022-08-30T23:03:22.007Z,65.74
2022-08-30T23:05:48.816Z,65.63
2022-08-30T23:08:15.515Z,65.97
2022-08-30T23:10:44.304Z,66.37
2022-08-30T23:13:11.240Z,66.66
2022-08-30T23:15:37.974Z,67.20
2022-08-30T23:18:04.704Z,67.10
2022-08-30T23:20:31.451Z,67.02
2022-08-30T23:22:58.139Z,67.01
2022-08-30T23:25:47.531Z,67.16
2022-08-30T23:28:37.886Z,67.54
2022-08-30T23:31:34.043Z,67.89
2022-08-30T23:34:19.447Z,68.20
2022-08-30T23:37:04.738Z,68.43
2022-08-30T23:39:50.054Z,68.75
2022-08-30T23:42:35.490Z,69.08
2022-08-30T23:45:20.814Z,69.40
2022-08-30T23:48:06.239Z,69.76
2022-08-30T23:50:51.263Z,70.00
2022-08-30T23:53:36.649Z,70.13
2022-08-30T23:56:22.023Z,70.18
2022-08-30T23:59:07.432Z,70.45
